Time;durP1;ratioP1;P1;durP2;ratioP2;P2;SDS_P1;SDS_P2;PMS_P1;PMS_P2;Temp;Humidity;BMP_temperature;BMP_pressure;BME280_temperature;BME280_humidity;BME280_pressure;Samples;Min_cycle;Max_cycle;Signal;HPM_P1;HPM_P2
2023/04/18 00:01:01;;;;;;;2.90;2.70;;;;;;;;;;5066341;28;20317;-56
2023/04/18 00:03:29;;;;;;;4.27;2.93;;;;;;;;;;5062335;28;20298;-56
2023/04/18 00:05:56;;;;;;;2.60;2.40;;;;;;;;;;5051990;28;20227;-57
2023/04/18 00:08:23;;;;;;;4.77;3.23;;;;;;;;;;5048914;28;20670;-57
2023/04/18 00:10:50;;;;;;;3.60;2.63;;;;;;;;;;5049198;28;20235;-57
2023/04/18 00:13:19;;;;;;;2.90;2.70;;;;;;;;;;5053751;28;20214;-57
2023/04/18 00:15:46;;;;;;;3.03;2.77;;;;;;;;;;5044962;28;20569;-57
2023/04/18 00:18:15;;;;;;;3.67;2.47;;;;;;;;;;5047371;28;20701;-56
2023/04/18 00:20:44;;;;;;;2.70;2.50;;;;;;;;;;5047486;28;20663;-57
2023/04/18 00:23:12;;;;;;;5.53;2.50;;;;;;;;;;5059070;28;20226;-58
2023/04/18 00:25:39;;;;;;;2.33;2.23;;;;;;;;;;5047562;28;20255;-56
2023/04/18 00:28:06;;;;;;;2.80;2.60;;;;;;;;;;5047386;28;20207;-56
2023/04/18 00:30:35;;;;;;;2.83;2.50;;;;;;;;;;5047427;28;20231;-56
2023/04/18 00:33:03;;;;;;;2.77;2.57;;;;;;;;;;5055477;28;20206;-57
2023/04/18 00:35:30;;;;;;;2.87;2.33;;;;;;;;;;5050585;28;20544;-56
2023/04/18 00:37:57;;;;;;;2.93;2.73;;;;;;;;;;5061498;28;20322;-57
2023/04/18 00:40:24;;;;;;;3.03;2.70;;;;;;;;;;5066320;28;20242;-57
2023/04/18 00:42:51;;;;;;;2.77;2.43;;;;;;;;;;5053479;28;20207;-57
2023/04/18 00:45:19;;;;;;;4.93;2.83;;;;;;;;;;5048638;28;20469;-57
2023/04/18 00:47:47;;;;;;;3.60;2.73;;;;;;;;;;5059793;28;20674;-57
2023/04/18 00:50:15;;;;;;;2.90;2.70;;;;;;;;;;5062927;28;20231;-56
2023/04/18 00:52:42;;;;;;;3.40;2.80;;;;;;;;;;5057619;28;20207;-57
2023/04/18 00:55:09;;;;;;;3.20;2.90;;;;;;;;;;5069360;28;20218;-56
2023/04/18 00:57:37;;;;;;;3.93;2.50;;;;;;;;;;5058246;28;20211;-57
2023/04/18 01:00:08;;;;;;;7.83;3.20;;;;;;;;;;5057043;28;20226;-56
2023/04/18 01:02:36;;;;;;;3.27;2.70;;;;;;;;;;5061063;28;20304;-57
2023/04/18 01:05:04;;;;;;;3.17;2.87;;;;;;;;;;5065005;28;20214;-56
2023/04/18 01:07:32;;;;;;;5.07;3.33;;;;;;;;;;5057257;28;20236;-57
2023/04/18 01:09:59;;;;;;;10.27;3.07;;;;;;;;;;5070588;28;20299;-57
2023/04/18 01:12:26;;;;;;;3.53;2.80;;;;;;;;;;5059195;28;20215;-57
2023/04/18 01:14:53;;;;;;;3.20;2.90;;;;;;;;;;5055176;28;20229;-57
2023/04/18 01:17:22;;;;;;;2.33;2.23;;;;;;;;;;5057435;28;20203;-57
2023/04/18 01:19:49;;;;;;;5.53;3.50;;;;;;;;;;5051042;28;20227;-57
2023/04/18 01:22:19;;;;;;;9.77;2.97;;;;;;;;;;5062336;28;20227;-57
2023/04/18 01:24:48;;;;;;;3.43;3.10;;;;;;;;;;5065727;28;20216;-57
2023/04/18 01:27:15;;;;;;;3.63;3.17;;;;;;;;;;5061964;28;20290;-57
2023/04/18 01:29:42;;;;;;;3.10;2.90;;;;;;;;;;5061803;28;20230;-57
2023/04/18 01:32:09;;;;;;;5.47;3.07;;;;;;;;;;5059614;28;20733;-57
2023/04/18 01:34:36;;;;;;;4.30;2.90;;;;;;;;;;5068632;28;20237;-57
2023/04/18 01:37:03;;;;;;;3.00;2.80;;;;;;;;;;5068131;28;20219;-57
2023/04/18 01:39:30;;;;;;;4.27;2.97;;;;;;;;;;5059458;28;20301;-56
2023/04/18 01:42:00;;;;;;;3.37;3.00;;;;;;;;;;5062134;28;20685;-57
2023/04/18 01:44:27;;;;;;;5.17;3.77;;;;;;;;;;5069700;28;20207;-57
2023/04/18 01:46:54;;;;;;;3.30;3.00;;;;;;;;;;5059096;28;20204;-57
2023/04/18 01:49:21;;;;;;;3.67;2.80;;;;;;;;;;5063234;28;20203;-55
2023/04/18 01:51:48;;;;;;;3.30;3.00;;;;;;;;;;5054791;28;20211;-55
2023/04/18 01:54:15;;;;;;;5.97;3.17;;;;;;;;;;5051123;28;20556;-55
2023/04/18 01:56:42;;;;;;;4.30;3.90;;;;;;;;;;5058156;28;20214;-56
2023/04/18 01:59:10;;;;;;;6.17;4.50;;;;;;;;;;5065494;28;20246;-58
2023/04/18 02:01:37;;;;;;;8.40;4.63;;;;;;;;;;5068533;28;20298;-56
2023/04/18 02:04:04;;;;;;;4.23;3.33;;;;;;;;;;5064594;28;20228;-56
2023/04/18 02:06:31;;;;;;;5.97;4.67;;;;;;;;;;5069881;28;20261;-55
2023/04/18 02:08:58;;;;;;;3.87;3.53;;;;;;;;;;5067379;28;20305;-56
2023/04/18 02:11:25;;;;;;;9.67;4.17;;;;;;;;;;5055755;28;20231;-56
2023/04/18 02:13:52;;;;;;;10.43;5.77;;;;;;;;;;5052978;28;20215;-56
2023/04/18 02:16:21;;;;;;;6.47;4.43;;;;;;;;;;5068615;28;20195;-56
2023/04/18 02:18:48;;;;;;;5.90;3.87;;;;;;;;;;5069087;28;20259;-56
2023/04/18 02:21:15;;;;;;;5.67;4.17;;;;;;;;;;5065866;28;20573;-56
2023/04/18 02:23:42;;;;;;;7.67;3.60;;;;;;;;;;5050444;28;20557;-56
2023/04/18 02:26:09;;;;;;;5.33;3.87;;;;;;;;;;5049190;28;20215;-57
2023/04/18 02:28:37;;;;;;;7.83;4.80;;;;;;;;;;5049349;28;20219;-56
2023/04/18 02:31:05;;;;;;;8.57;5.03;;;;;;;;;;5048475;28;20219;-56
2023/04/18 02:33:33;;;;;;;5.23;4.37;;;;;;;;;;5049328;28;20666;-56
2023/04/18 02:36:00;;;;;;;8.00;4.33;;;;;;;;;;5048819;28;20200;-56
2023/04/18 02:38:27;;;;;;;6.97;4.60;;;;;;;;;;5065281;28;20219;-55
2023/04/18 02:41:03;;;;;;;6.83;4.63;;;;;;;;;;5066779;28;20561;-56
2023/04/18 02:43:30;;;;;;;8.77;5.17;;;;;;;;;;5069263;28;20301;-56
2023/04/18 02:45:57;;;;;;;7.70;5.03;;;;;;;;;;5053735;28;20293;-56
2023/04/18 02:48:24;;;;;;;13.50;6.30;;;;;;;;;;5066958;28;20684;-56
2023/04/18 02:50:52;;;;;;;11.30;5.17;;;;;;;;;;5053538;28;20226;-55
2023/04/18 02:53:22;;;;;;;7.17;5.13;;;;;;;;;;5068639;28;20214;-56
2023/04/18 02:55:49;;;;;;;6.77;4.90;;;;;;;;;;5065622;28;20221;-56
2023/04/18 02:58:16;;;;;;;7.03;4.23;;;;;;;;;;5048960;28;20204;-55
2023/04/18 03:00:43;;;;;;;9.47;5.50;;;;;;;;;;5056554;28;20207;-56
2023/04/18 03:03:11;;;;;;;5.97;3.97;;;;;;;;;;5055638;28;20207;-56
2023/04/18 03:05:39;;;;;;;8.63;3.67;;;;;;;;;;5068241;28;20238;-56
2023/04/18 03:08:07;;;;;;;3.33;3.03;;;;;;;;;;5068400;28;20215;-55
2023/04/18 03:10:34;;;;;;;3.47;3.10;;;;;;;;;;5066931;28;20223;-55
2023/04/18 03:13:01;;;;;;;2.97;2.77;;;;;;;;;;5049178;28;20273;-56
2023/04/18 03:15:29;;;;;;;3.17;2.27;;;;;;;;;;5061423;28;20206;-56
2023/04/18 03:17:56;;;;;;;4.33;3.17;;;;;;;;;;5048388;28;20631;-55
2023/04/18 03:20:23;;;;;;;5.27;3.27;;;;;;;;;;5049649;28;20211;-56
2023/04/18 03:22:51;;;;;;;3.27;2.97;;;;;;;;;;5068186;28;20597;-56
2023/04/18 03:25:19;;;;;;;3.23;2.93;;;;;;;;;;5065305;28;20692;-57
2023/04/18 03:27:46;;;;;;;3.50;3.20;;;;;;;;;;5058039;28;20206;-56
2023/04/18 03:30:13;;;;;;;4.80;3.03;;;;;;;;;;5059779;28;20219;-56
2023/04/18 03:32:41;;;;;;;3.23;3.03;;;;;;;;;;5060169;28;20211;-56
2023/04/18 03:35:09;;;;;;;5.77;3.27;;;;;;;;;;5053104;28;20302;-55
2023/04/18 03:37:36;;;;;;;3.40;3.10;;;;;;;;;;5050507;28;20674;-56
2023/04/18 03:40:04;;;;;;;6.23;3.30;;;;;;;;;;5049313;28;20251;-56
2023/04/18 03:42:32;;;;;;;3.03;2.63;;;;;;;;;;5067783;28;20214;-56
2023/04/18 03:44:59;;;;;;;4.70;2.80;;;;;;;;;;5059922;28;20210;-56
2023/04/18 03:47:26;;;;;;;3.73;3.43;;;;;;;;;;5067678;28;20661;-56
2023/04/18 03:49:54;;;;;;;3.97;3.10;;;;;;;;;;5060692;28;20210;-56
2023/04/18 03:52:21;;;;;;;3.83;3.50;;;;;;;;;;5064634;28;20282;-56
2023/04/18 03:54:48;;;;;;;4.17;3.03;;;;;;;;;;5059233;28;20226;-56
2023/04/18 03:57:15;;;;;;;4.27;3.20;;;;;;;;;;5067932;28;20674;-56
2023/04/18 03:59:43;;;;;;;4.93;3.17;;;;;;;;;;5063422;28;20702;-56
2023/04/18 04:02:10;;;;;;;4.03;3.57;;;;;;;;;;5059428;28;20261;-55
2023/04/18 04:04:37;;;;;;;5.53;3.77;;;;;;;;;;5050295;28;20208;-57
2023/04/18 04:07:04;;;;;;;5.03;4.17;;;;;;;;;;5047634;28;20215;-55
2023/04/18 04:09:31;;;;;;;4.10;3.80;;;;;;;;;;5047355;28;20567;-56
2023/04/18 04:11:58;;;;;;;8.10;3.80;;;;;;;;;;5047511;28;20231;-56
2023/04/18 04:14:25;;;;;;;7.07;3.90;;;;;;;;;;5047343;28;20235;-56
2023/04/18 04:16:54;;;;;;;4.63;3.70;;;;;;;;;;5048012;28;20294;-56
2023/04/18 04:19:21;;;;;;;12.37;4.00;;;;;;;;;;5053173;28;20219;-56
2023/04/18 04:21:48;;;;;;;7.70;4.57;;;;;;;;;;5067821;28;20213;-57
2023/04/18 04:24:15;;;;;;;7.43;4.17;;;;;;;;;;5058796;28;20210;-56
2023/04/18 04:26:42;;;;;;;5.27;3.27;;;;;;;;;;5063234;28;20206;-56
2023/04/18 04:29:10;;;;;;;6.63;3.77;;;;;;;;;;5059368;28;20226;-56
2023/04/18 04:31:37;;;;;;;6.37;4.37;;;;;;;;;;5071017;28;20269;-56
2023/04/18 04:34:05;;;;;;;3.30;3.03;;;;;;;;;;5064541;28;20210;-56
2023/04/18 04:36:33;;;;;;;5.10;4.17;;;;;;;;;;5050091;28;20254;-56
2023/04/18 04:39:02;;;;;;;6.53;4.37;;;;;;;;;;5056798;28;20596;-56
2023/04/18 04:41:30;;;;;;;8.50;5.47;;;;;;;;;;5070232;28;20191;-56
2023/04/18 04:43:58;;;;;;;10.40;4.60;;;;;;;;;;5070958;28;20637;-60
2023/04/18 04:46:28;;;;;;;4.67;4.10;;;;;;;;;;5056985;28;20204;-58
2023/04/18 04:48:55;;;;;;;5.07;4.57;;;;;;;;;;5056573;28;20199;-56
2023/04/18 04:51:23;;;;;;;10.00;5.67;;;;;;;;;;5068911;28;20302;-56
2023/04/18 04:53:50;;;;;;;14.63;4.90;;;;;;;;;;5069611;28;20210;-56
2023/04/18 04:56:17;;;;;;;5.83;4.83;;;;;;;;;;5067994;28;20223;-56
2023/04/18 04:58:47;;;;;;;10.77;5.43;;;;;;;;;;5055674;28;20195;-56
2023/04/18 05:01:15;;;;;;;7.77;4.93;;;;;;;;;;5069058;28;20218;-56
2023/04/18 05:03:42;;;;;;;5.97;4.83;;;;;;;;;;5051192;28;20253;-56
2023/04/18 05:06:09;;;;;;;9.70;5.50;;;;;;;;;;5052885;28;20204;-57
2023/04/18 05:08:38;;;;;;;7.67;4.83;;;;;;;;;;5057231;28;20211;-57
2023/04/18 05:11:05;;;;;;;7.03;5.37;;;;;;;;;;5051839;28;20623;-57
2023/04/18 05:13:32;;;;;;;4.97;3.50;;;;;;;;;;5070703;28;20846;-57
2023/04/18 05:15:59;;;;;;;3.23;2.37;;;;;;;;;;5066663;28;20210;-57
2023/04/18 05:18:26;;;;;;;3.50;3.23;;;;;;;;;;5049114;28;20303;-57
2023/04/18 05:20:53;;;;;;;7.17;4.53;;;;;;;;;;5051975;28;20250;-56
2023/04/18 05:23:20;;;;;;;6.63;4.70;;;;;;;;;;5056514;28;20223;-56
2023/04/18 05:25:48;;;;;;;3.43;3.07;;;;;;;;;;5070480;28;20218;-57
2023/04/18 05:28:15;;;;;;;0.87;0.87;;;;;;;;;;5050349;28;20306;-57
2023/04/18 05:30:42;;;;;;;3.73;2.97;;;;;;;;;;5052971;28;20258;-57
2023/04/18 05:33:09;;;;;;;2.23;2.00;;;;;;;;;;5069085;28;20799;-56
2023/04/18 05:35:36;;;;;;;4.17;2.53;;;;;;;;;;5070353;28;20272;-56
2023/04/18 05:38:03;;;;;;;4.93;3.30;;;;;;;;;;5052716;28;20207;-56
2023/04/18 05:40:30;;;;;;;6.70;4.13;;;;;;;;;;5051234;28;20231;-56
2023/04/18 05:43:00;;;;;;;5.70;2.87;;;;;;;;;;5069004;28;20200;-60
2023/04/18 05:45:29;;;;;;;6.17;4.17;;;;;;;;;;5068291;28;20230;-56
2023/04/18 05:47:56;;;;;;;7.80;4.10;;;;;;;;;;5069964;28;20210;-57
2023/04/18 05:50:23;;;;;;;4.97;4.07;;;;;;;;;;5049844;28;20219;-57
2023/04/18 05:52:50;;;;;;;4.50;3.90;;;;;;;;;;5064146;28;20571;-57
2023/04/18 05:55:17;;;;;;;6.10;3.27;;;;;;;;;;5048871;28;20218;-58
2023/04/18 05:57:44;;;;;;;6.03;4.20;;;;;;;;;;5052078;28;20214;-56
2023/04/18 06:00:13;;;;;;;4.90;4.23;;;;;;;;;;5050160;28;20709;-56
2023/04/18 06:02:40;;;;;;;3.23;1.73;;;;;;;;;;5053517;28;20230;-56
2023/04/18 06:05:07;;;;;;;7.17;4.17;;;;;;;;;;5068139;28;20210;-56
2023/04/18 06:07:35;;;;;;;7.10;4.30;;;;;;;;;;5059102;28;20313;-56
2023/04/18 06:10:02;;;;;;;4.40;3.43;;;;;;;;;;5049902;28;20211;-56
2023/04/18 06:12:29;;;;;;;5.37;4.23;;;;;;;;;;5049686;28;20231;-57
2023/04/18 06:14:56;;;;;;;5.23;4.07;;;;;;;;;;5069440;28;20211;-57
2023/04/18 06:17:25;;;;;;;8.03;4.50;;;;;;;;;;5069461;28;20211;-57
2023/04/18 06:19:52;;;;;;;4.73;3.60;;;;;;;;;;5063295;28;20261;-58
2023/04/18 06:22:19;;;;;;;7.87;4.63;;;;;;;;;;5048039;28;20223;-57
2023/04/18 06:24:46;;;;;;;6.27;4.40;;;;;;;;;;5048478;28;20215;-57
2023/04/18 06:27:13;;;;;;;6.50;4.17;;;;;;;;;;5049339;28;20561;-57
2023/04/18 06:29:42;;;;;;;4.57;4.10;;;;;;;;;;5056848;28;20283;-57
2023/04/18 06:32:09;;;;;;;5.67;3.83;;;;;;;;;;5069318;28;20739;-58
2023/04/18 06:34:39;;;;;;;4.53;3.23;;;;;;;;;;5069339;28;20632;-57
2023/04/18 06:37:06;;;;;;;6.07;4.23;;;;;;;;;;5069120;28;20677;-57
2023/04/18 06:39:33;;;;;;;11.90;3.83;;;;;;;;;;5068950;28;20713;-57
2023/04/18 06:42:01;;;;;;;5.30;4.03;;;;;;;;;;5068914;28;20247;-56
2023/04/18 06:44:28;;;;;;;1.70;1.70;;;;;;;;;;5069337;28;20207;-57
2023/04/18 06:46:55;;;;;;;4.13;3.60;;;;;;;;;;5068612;28;20214;-57
2023/04/18 06:49:22;;;;;;;3.80;3.50;;;;;;;;;;5068842;28;20652;-56
2023/04/18 06:51:50;;;;;;;4.10;3.23;;;;;;;;;;5068960;28;20241;-57
2023/04/18 06:54:17;;;;;;;4.40;3.37;;;;;;;;;;5064267;28;20281;-57
2023/04/18 06:56:44;;;;;;;2.37;2.07;;;;;;;;;;5048871;28;20211;-56
2023/04/18 06:59:11;;;;;;;3.53;2.83;;;;;;;;;;5048829;28;20212;-56
2023/04/18 07:01:41;;;;;;;2.43;2.30;;;;;;;;;;5048940;28;20655;-57
2023/04/18 07:04:08;;;;;;;3.97;3.17;;;;;;;;;;5061551;28;20238;-56
2023/04/18 07:06:35;;;;;;;4.23;2.63;;;;;;;;;;5068637;28;20207;-61
2023/04/18 07:09:04;;;;;;;2.47;2.07;;;;;;;;;;5064157;28;20662;-57
2023/04/18 07:11:31;;;;;;;1.90;1.80;;;;;;;;;;5058110;28;20823;-57
2023/04/18 07:13:58;;;;;;;3.30;2.83;;;;;;;;;;5057292;28;20204;-56
2023/04/18 07:16:25;;;;;;;6.40;3.60;;;;;;;;;;5063651;28;20268;-57
2023/04/18 07:18:52;;;;;;;5.77;3.50;;;;;;;;;;5068315;28;20213;-57
2023/04/18 07:21:19;;;;;;;2.97;2.67;;;;;;;;;;5068265;28;20214;-57
2023/04/18 07:23:46;;;;;;;1.00;1.00;;;;;;;;;;5066487;28;20288;-56
2023/04/18 07:26:15;;;;;;;4.27;3.23;;;;;;;;;;5067928;28;20207;-57
2023/04/18 07:28:42;;;;;;;2.00;1.47;;;;;;;;;;5067888;28;20633;-57
2023/04/18 07:31:10;;;;;;;4.27;3.03;;;;;;;;;;5061745;28;20207;-57
2023/04/18 07:33:37;;;;;;;4.00;3.47;;;;;;;;;;5062464;28;20760;-57
2023/04/18 07:36:04;;;;;;;5.03;3.30;;;;;;;;;;5065412;28;20649;-57
2023/04/18 07:38:31;;;;;;;3.67;2.77;;;;;;;;;;5063033;28;20226;-57
2023/04/18 07:40:58;;;;;;;4.10;2.10;;;;;;;;;;5061716;28;20772;-57
2023/04/18 07:43:27;;;;;;;4.80;3.60;;;;;;;;;;5064166;28;20203;-57
2023/04/18 07:45:54;;;;;;;3.80;3.47;;;;;;;;;;5060314;28;20211;-57
2023/04/18 07:48:21;;;;;;;3.80;2.53;;;;;;;;;;5067775;28;20215;-58
2023/04/18 07:50:48;;;;;;;5.33;3.00;;;;;;;;;;5062588;28;20242;-57
2023/04/18 07:53:15;;;;;;;6.03;3.47;;;;;;;;;;5051691;28;20268;-56
2023/04/18 07:55:43;;;;;;;4.90;3.20;;;;;;;;;;5061603;28;20666;-57
2023/04/18 07:58:10;;;;;;;3.13;2.90;;;;;;;;;;5047648;28;20219;-57
2023/04/18 08:00:38;;;;;;;4.77;3.20;;;;;;;;;;5058976;28;20207;-58
2023/04/18 08:03:06;;;;;;;3.73;1.87;;;;;;;;;;5067681;28;20206;-55
2023/04/18 08:05:33;;;;;;;8.03;4.00;;;;;;;;;;5066115;28;20203;-56
2023/04/18 08:08:00;;;;;;;5.33;2.53;;;;;;;;;;5067653;28;20294;-56
2023/04/18 08:10:27;;;;;;;2.70;1.47;;;;;;;;;;5046778;28;20798;-56
2023/04/18 08:12:54;;;;;;;3.57;3.10;;;;;;;;;;5046954;28;20701;-56
2023/04/18 08:15:21;;;;;;;3.87;3.27;;;;;;;;;;5046587;28;20211;-57
2023/04/18 08:17:50;;;;;;;4.87;3.43;;;;;;;;;;5047077;28;20195;-57
2023/04/18 08:20:17;;;;;;;3.83;3.13;;;;;;;;;;5047561;28;20299;-56
2023/04/18 08:22:46;;;;;;;3.10;2.80;;;;;;;;;;5047485;28;20239;-57
2023/04/18 08:25:13;;;;;;;4.63;3.33;;;;;;;;;;5046858;28;20254;-57
2023/04/18 08:27:40;;;;;;;2.33;1.23;;;;;;;;;;5046934;28;20211;-59
2023/04/18 08:30:07;;;;;;;2.93;2.47;;;;;;;;;;5047646;28;20631;-59
2023/04/18 08:32:36;;;;;;;5.27;3.47;;;;;;;;;;5047494;28;20227;-60
2023/04/18 08:35:04;;;;;;;3.33;2.83;;;;;;;;;;5049500;28;20462;-61
2023/04/18 08:37:34;;;;;;;3.47;2.80;;;;;;;;;;5066157;28;20203;-61
2023/04/18 08:40:02;;;;;;;5.63;3.57;;;;;;;;;;5050540;28;21039;-58
2023/04/18 08:42:29;;;;;;;3.37;2.50;;;;;;;;;;5056750;28;20209;-57
2023/04/18 08:44:58;;;;;;;3.53;2.80;;;;;;;;;;5055823;28;20203;-57
2023/04/18 08:47:25;;;;;;;5.37;3.43;;;;;;;;;;5054041;28;20667;-58
2023/04/18 08:49:53;;;;;;;3.37;2.43;;;;;;;;;;5066934;28;20241;-58
2023/04/18 08:52:23;;;;;;;3.80;2.70;;;;;;;;;;5052551;28;20231;-61
2023/04/18 08:54:50;;;;;;;1.70;1.60;;;;;;;;;;5048843;28;20207;-57
2023/04/18 08:57:25;;;;;;;1.60;1.33;;;;;;;;;;5057258;28;20235;-58
2023/04/18 08:59:52;;;;;;;3.33;2.70;;;;;;;;;;5063975;28;20215;-58
2023/04/18 09:02:20;;;;;;;2.97;1.93;;;;;;;;;;5054540;28;20207;-58
2023/04/18 09:04:51;;;;;;;2.13;2.03;;;;;;;;;;5061994;28;20215;-57
2023/04/18 09:07:18;;;;;;;7.10;3.70;;;;;;;;;;5046902;28;20204;-56
2023/04/18 09:09:47;;;;;;;2.73;2.43;;;;;;;;;;5050327;28;20721;-58
2023/04/18 09:12:17;;;;;;;5.23;3.30;;;;;;;;;;5054614;28;20235;-57
2023/04/18 09:14:45;;;;;;;2.10;1.90;;;;;;;;;;5067484;28;20203;-57
2023/04/18 09:17:14;;;;;;;3.33;2.83;;;;;;;;;;5069907;28;20206;-57
2023/04/18 09:19:47;;;;;;;3.10;2.80;;;;;;;;;;5067031;28;20331;-58
2023/04/18 09:22:14;;;;;;;2.23;2.00;;;;;;;;;;5054495;28;20451;-58
2023/04/18 09:24:49;;;;;;;4.43;3.40;;;;;;;;;;5061072;28;20603;-58
2023/04/18 09:27:21;;;;;;;4.87;3.90;;;;;;;;;;5070508;28;20381;-58
2023/04/18 09:29:48;;;;;;;3.67;3.37;;;;;;;;;;5051190;28;20208;-57
2023/04/18 09:32:23;;;;;;;3.50;1.83;;;;;;;;;;5050414;28;20254;-58
2023/04/18 09:34:53;;;;;;;3.20;2.83;;;;;;;;;;5050624;28;20203;-58
2023/04/18 09:37:20;;;;;;;4.60;3.90;;;;;;;;;;5064206;28;20214;-58
2023/04/18 09:39:48;;;;;;;2.77;2.57;;;;;;;;;;5070066;28;20239;-58
2023/04/18 09:42:15;;;;;;;4.30;3.23;;;;;;;;;;5058969;28;20213;-58
2023/04/18 09:44:57;;;;;;;3.23;2.90;;;;;;;;;;5066679;28;20237;-58
2023/04/18 09:47:26;;;;;;;2.40;2.30;;;;;;;;;;5066658;28;20202;-58
2023/04/18 09:49:53;;;;;;;3.53;3.20;;;;;;;;;;5049359;28;20195;-58
2023/04/18 09:52:20;;;;;;;3.37;3.07;;;;;;;;;;5049126;28;20717;-58
2023/04/18 09:54:48;;;;;;;4.37;2.87;;;;;;;;;;5053829;28;20298;-58
2023/04/18 09:57:16;;;;;;;1.67;1.57;;;;;;;;;;5068439;28;20638;-57
2023/04/18 09:59:46;;;;;;;3.63;1.57;;;;;;;;;;5053215;28;20212;-58
2023/04/18 10:02:16;;;;;;;3.77;2.23;;;;;;;;;;5056641;28;20211;-58
2023/04/18 10:04:45;;;;;;;2.33;2.07;;;;;;;;;;5049496;28;20678;-58
2023/04/18 10:07:13;;;;;;;2.83;2.63;;;;;;;;;;5063990;28;20210;-58
2023/04/18 10:09:43;;;;;;;3.60;2.77;;;;;;;;;;5069662;28;20203;-58
2023/04/18 10:12:11;;;;;;;3.07;2.30;;;;;;;;;;5058316;28;20231;-57
2023/04/18 10:14:39;;;;;;;3.20;2.90;;;;;;;;;;5055866;28;20195;-57
2023/04/18 10:17:07;;;;;;;2.37;2.20;;;;;;;;;;5069388;28;20300;-58
2023/04/18 10:19:34;;;;;;;3.23;2.93;;;;;;;;;;5051644;28;20215;-57
2023/04/18 10:22:02;;;;;;;3.07;2.83;;;;;;;;;;5061184;28;20580;-58
2023/04/18 10:24:48;;;;;;;3.67;3.00;;;;;;;;;;5066774;28;20311;-58
2023/04/18 10:27:16;;;;;;;2.87;2.67;;;;;;;;;;5052678;28;20666;-58
2023/04/18 10:29:47;;;;;;;2.37;2.17;;;;;;;;;;5068029;28;20276;-58
2023/04/18 10:32:14;;;;;;;2.17;2.00;;;;;;;;;;5062764;28;20223;-57
2023/04/18 10:34:41;;;;;;;2.80;2.60;;;;;;;;;;5049500;28;20229;-58
2023/04/18 10:37:11;;;;;;;2.00;1.90;;;;;;;;;;5055546;28;20207;-58
2023/04/18 10:39:49;;;;;;;3.37;3.03;;;;;;;;;;5059373;28;20735;-58
2023/04/18 10:42:16;;;;;;;3.10;2.83;;;;;;;;;;5066822;28;20738;-58
2023/04/18 10:44:43;;;;;;;2.10;1.90;;;;;;;;;;5062048;28;20207;-58
2023/04/18 10:47:31;;;;;;;3.03;2.50;;;;;;;;;;5068808;28;20408;-58
2023/04/18 10:50:00;;;;;;;1.43;1.43;;;;;;;;;;5049221;28;20215;-58
2023/04/18 10:52:31;;;;;;;1.70;1.43;;;;;;;;;;5047879;28;20314;-58
2023/04/18 10:55:14;;;;;;;1.53;1.43;;;;;;;;;;5060723;28;20214;-59
2023/04/18 10:57:42;;;;;;;1.60;1.50;;;;;;;;;;5049080;28;20644;-57
2023/04/18 11:00:11;;;;;;;2.40;2.20;;;;;;;;;;5061726;28;20211;-57
2023/04/18 11:02:38;;;;;;;1.73;1.63;;;;;;;;;;5050784;28;20207;-58
2023/04/18 11:05:06;;;;;;;4.37;2.67;;;;;;;;;;5048863;28;20200;-58
2023/04/18 11:07:36;;;;;;;2.70;2.50;;;;;;;;;;5061344;28;20211;-64
2023/04/18 11:10:03;;;;;;;2.22;2.13;;;;;;;;;;5048366;28;20674;-58
2023/04/18 11:12:31;;;;;;;2.40;2.25;;;;;;;;;;5048210;28;20215;-58
2023/04/18 11:15:00;;;;;;;1.55;1.50;;;;;;;;;;5061951;28;20268;-58
2023/04/18 11:17:28;;;;;;;2.10;2.00;;;;;;;;;;5068060;28;20211;-56
2023/04/18 11:20:00;;;;;;;2.25;2.15;;;;;;;;;;5052972;28;20211;-56
2023/04/18 11:22:28;;;;;;;2.25;2.05;;;;;;;;;;5052106;28;20247;-58
2023/04/18 11:24:59;;;;;;;2.65;2.45;;;;;;;;;;5062136;28;20214;-56
2023/04/18 11:27:26;;;;;;;2.20;2.10;;;;;;;;;;5049176;28;20658;-56
2023/04/18 11:29:54;;;;;;;2.75;2.35;;;;;;;;;;5058049;28;20657;-57
2023/04/18 11:32:22;;;;;;;2.47;2.38;;;;;;;;;;5063873;28;20257;-56
2023/04/18 11:34:51;;;;;;;2.53;2.25;;;;;;;;;;5057004;28;20211;-56
2023/04/18 11:37:19;;;;;;;2.20;2.00;;;;;;;;;;5050186;28;20208;-56
2023/04/18 11:39:46;;;;;;;2.25;2.15;;;;;;;;;;5048837;28;20327;-56
2023/04/18 11:42:14;;;;;;;1.33;1.33;;;;;;;;;;5045768;28;20260;-56
2023/04/18 11:44:45;;;;;;;1.15;1.15;;;;;;;;;;5056082;28;20799;-59
2023/04/18 11:47:25;;;;;;;1.85;1.75;;;;;;;;;;5067410;28;20210;-56
2023/04/18 11:49:59;;;;;;;2.25;2.15;;;;;;;;;;5067123;28;20211;-56
2023/04/18 11:52:27;;;;;;;2.15;2.05;;;;;;;;;;5066930;28;20211;-56
2023/04/18 11:54:54;;;;;;;2.10;1.90;;;;;;;;;;5067156;28;20211;-56
2023/04/18 11:57:24;;;;;;;1.48;1.38;;;;;;;;;;5067286;28;20221;-56
2023/04/18 11:59:52;;;;;;;1.48;1.42;;;;;;;;;;5066530;28;20211;-57
2023/04/18 12:02:19;;;;;;;1.70;1.60;;;;;;;;;;5067305;28;20221;-56
2023/04/18 12:04:50;;;;;;;1.67;1.60;;;;;;;;;;5067090;28;20293;-56
2023/04/18 12:07:29;;;;;;;1.52;1.40;;;;;;;;;;5067137;28;20583;-59
2023/04/18 12:09:56;;;;;;;1.52;1.52;;;;;;;;;;5067328;28;20222;-59
2023/04/18 12:12:25;;;;;;;0.90;0.90;;;;;;;;;;5067288;28;20215;-58
2023/04/18 12:14:58;;;;;;;2.10;2.00;;;;;;;;;;5066693;28;20790;-58
2023/04/18 12:17:26;;;;;;;1.55;1.45;;;;;;;;;;5057109;28;20215;-58
2023/04/18 12:19:54;;;;;;;1.95;1.63;;;;;;;;;;5047133;28;20203;-58
2023/04/18 12:22:24;;;;;;;2.33;1.83;;;;;;;;;;5046527;28;20704;-58
2023/04/18 12:25:06;;;;;;;2.20;2.00;;;;;;;;;;5046541;28;20253;-58
2023/04/18 12:27:48;;;;;;;1.27;1.17;;;;;;;;;;5047089;28;20678;-58
2023/04/18 12:30:18;;;;;;;2.85;2.10;;;;;;;;;;5047142;28;20203;-57
2023/04/18 12:32:46;;;;;;;3.22;3.03;;;;;;;;;;5047256;28;20212;-58
2023/04/18 12:35:13;;;;;;;1.50;1.50;;;;;;;;;;5046531;28;20207;-58
2023/04/18 12:37:40;;;;;;;2.30;2.10;;;;;;;;;;5046820;28;20212;-58
2023/04/18 12:40:08;;;;;;;1.17;1.17;;;;;;;;;;5046489;28;20334;-58
2023/04/18 12:42:35;;;;;;;2.50;2.03;;;;;;;;;;5046861;28;20208;-58
2023/04/18 12:45:02;;;;;;;1.23;1.23;;;;;;;;;;5047241;28;20207;-57
2023/04/18 12:47:30;;;;;;;1.40;1.40;;;;;;;;;;5050377;28;20302;-58
2023/04/18 12:49:57;;;;;;;1.00;1.00;;;;;;;;;;5051111;28;20212;-58
2023/04/18 12:52:24;;;;;;;1.63;1.50;;;;;;;;;;5050286;28;20401;-58
2023/04/18 12:54:51;;;;;;;1.10;1.10;;;;;;;;;;5050316;28;20633;-58
2023/04/18 12:57:18;;;;;;;2.53;1.48;;;;;;;;;;5050832;28;20582;-58
2023/04/18 12:59:45;;;;;;;1.30;1.27;;;;;;;;;;5050676;28;20219;-58
2023/04/18 13:02:13;;;;;;;1.27;1.27;;;;;;;;;;5050488;28;20222;-58
2023/04/18 13:04:41;;;;;;;1.60;1.50;;;;;;;;;;5050282;28;20625;-58
2023/04/18 13:07:08;;;;;;;1.55;1.30;;;;;;;;;;5050517;28;20215;-58
2023/04/18 13:09:35;;;;;;;1.40;1.40;;;;;;;;;;5050640;28;20211;-58
2023/04/18 13:12:03;;;;;;;1.83;1.73;;;;;;;;;;5050593;28;20208;-58
2023/04/18 13:14:30;;;;;;;1.35;1.25;;;;;;;;;;5050140;28;20620;-58
2023/04/18 13:16:57;;;;;;;1.15;1.15;;;;;;;;;;5050276;28;20724;-58
2023/04/18 13:19:24;;;;;;;1.30;1.30;;;;;;;;;;5050298;28;20208;-58
2023/04/18 13:21:52;;;;;;;1.20;1.20;;;;;;;;;;5049972;28;20313;-58
2023/04/18 13:24:19;;;;;;;1.10;1.00;;;;;;;;;;5050046;28;20639;-58
2023/04/18 13:26:47;;;;;;;0.90;0.90;;;;;;;;;;5049292;28;20261;-58
2023/04/18 13:29:14;;;;;;;1.45;1.45;;;;;;;;;;5050146;28;20211;-58
2023/04/18 13:31:41;;;;;;;1.90;1.80;;;;;;;;;;5050300;28;20218;-57
2023/04/18 13:34:08;;;;;;;1.92;1.83;;;;;;;;;;5050086;28;20235;-58
2023/04/18 13:36:35;;;;;;;1.58;1.48;;;;;;;;;;5049828;28;20580;-58
2023/04/18 13:39:04;;;;;;;1.40;1.40;;;;;;;;;;5049633;28;20211;-58
2023/04/18 13:41:32;;;;;;;1.30;1.20;;;;;;;;;;5049875;28;20277;-58
2023/04/18 13:43:59;;;;;;;1.67;1.58;;;;;;;;;;5049010;28;20212;-58
2023/04/18 13:46:26;;;;;;;1.85;1.60;;;;;;;;;;5049461;28;20208;-58
2023/04/18 13:48:53;;;;;;;1.55;1.45;;;;;;;;;;5049721;28;20607;-58
2023/04/18 13:51:20;;;;;;;1.60;1.50;;;;;;;;;;5049846;28;20211;-58
2023/04/18 13:53:47;;;;;;;2.03;1.85;;;;;;;;;;5049709;28;20239;-58
2023/04/18 13:56:15;;;;;;;1.75;1.65;;;;;;;;;;5048971;28;20212;-58
2023/04/18 13:58:42;;;;;;;1.58;1.58;;;;;;;;;;5053364;28;20690;-57
2023/04/18 14:01:10;;;;;;;1.60;1.30;;;;;;;;;;5063138;28;20211;-57
2023/04/18 14:03:37;;;;;;;1.23;1.23;;;;;;;;;;5055317;28;20838;-57
2023/04/18 14:06:05;;;;;;;1.17;1.17;;;;;;;;;;5066622;28;20211;-62
2023/04/18 14:08:32;;;;;;;1.90;1.80;;;;;;;;;;5051293;28;20214;-58
2023/04/18 14:10:59;;;;;;;1.35;1.35;;;;;;;;;;5056620;28;20203;-58
2023/04/18 14:13:27;;;;;;;1.75;1.65;;;;;;;;;;5066691;28;20219;-57
2023/04/18 14:15:54;;;;;;;1.20;1.20;;;;;;;;;;5053404;28;20215;-57
2023/04/18 14:18:22;;;;;;;1.25;1.15;;;;;;;;;;5050319;28;20212;-57
2023/04/18 14:20:49;;;;;;;0.98;0.98;;;;;;;;;;5048511;28;20212;-57
2023/04/18 14:23:16;;;;;;;2.20;1.98;;;;;;;;;;5062037;28;20227;-56
2023/04/18 14:25:43;;;;;;;1.45;1.45;;;;;;;;;;5069545;28;20483;-57
2023/04/18 14:28:11;;;;;;;1.55;1.45;;;;;;;;;;5067687;28;20215;-57
2023/04/18 14:30:40;;;;;;;1.85;1.75;;;;;;;;;;5069072;28;20245;-57
2023/04/18 14:33:08;;;;;;;1.67;1.60;;;;;;;;;;5057886;28;20215;-57
2023/04/18 14:35:36;;;;;;;2.05;1.85;;;;;;;;;;5049053;28;20224;-57
2023/04/18 14:38:03;;;;;;;1.52;1.52;;;;;;;;;;5055367;28;20551;-57
2023/04/18 14:40:30;;;;;;;1.73;1.63;;;;;;;;;;5068595;28;20235;-57
2023/04/18 14:42:57;;;;;;;1.70;1.60;;;;;;;;;;5060481;28;20215;-58
2023/04/18 14:45:24;;;;;;;1.75;1.65;;;;;;;;;;5064732;28;20711;-58
2023/04/18 14:47:54;;;;;;;1.40;1.40;;;;;;;;;;5066893;28;20231;-58